createdAt,value
2019-05-20T00:00:08.671Z,7.47
2019-05-20T00:02:37.805Z,7.58
2019-05-20T00:05:06.940Z,7.45
2019-05-20T00:07:36.419Z,7.80
2019-05-20T00:10:07.861Z,7.60
2019-05-20T00:12:37.011Z,6.87
2019-05-20T00:15:07.130Z,7.05
2019-05-20T00:17:36.266Z,7.17
2019-05-20T00:20:07.199Z,7.67
2019-05-20T00:22:36.357Z,7.10
2019-05-20T00:25:08.240Z,7.47
2019-05-20T00:27:37.377Z,7.35
2019-05-20T00:30:06.944Z,7.58
2019-05-20T00:32:41.281Z,7.78
2019-05-20T00:35:07.744Z,7.05
2019-05-20T00:37:36.842Z,7.78
2019-05-20T00:40:09.322Z,7.28
2019-05-20T00:42:38.464Z,7.65
2019-05-20T00:45:07.894Z,7.60
2019-05-20T00:47:37.023Z,7.45
2019-05-20T00:50:06.784Z,7.17
2019-05-20T00:52:35.926Z,8.03
2019-05-20T00:55:10.325Z,7.58
2019-05-20T00:57:39.503Z,7.45
2019-05-20T01:00:08.655Z,7.25
2019-05-20T01:02:37.774Z,7.83
2019-05-20T01:05:07.053Z,7.47
2019-05-20T01:07:36.202Z,7.85
2019-05-20T01:10:07.011Z,7.40
2019-05-20T01:12:36.145Z,7.37
2019-05-20T01:15:06.529Z,7.10
2019-05-20T01:17:35.661Z,7.35
2019-05-20T01:20:06.334Z,7.15
2019-05-20T01:22:35.474Z,7.50
2019-05-20T01:25:06.757Z,7.47
2019-05-20T01:27:35.970Z,7.03
2019-05-20T01:30:09.679Z,7.50
2019-05-20T01:32:38.880Z,7.17
2019-05-20T01:35:08.931Z,7.05
2019-05-20T01:37:38.103Z,7.45
2019-05-20T01:40:07.480Z,7.53
2019-05-20T01:42:36.610Z,7.47
2019-05-20T01:45:06.451Z,7.00
2019-05-20T01:47:35.607Z,7.42
2019-05-20T01:50:06.883Z,7.30
2019-05-20T01:52:36.065Z,7.47
2019-05-20T01:55:07.166Z,7.85
2019-05-20T01:57:36.287Z,7.37
2019-05-20T02:00:07.779Z,6.92
2019-05-20T02:02:36.920Z,7.55
2019-05-20T02:05:07.226Z,7.20
2019-05-20T02:07:36.358Z,7.28
2019-05-20T02:10:07.127Z,7.47
2019-05-20T02:12:36.275Z,7.40
2019-05-20T02:15:23.347Z,7.22
2019-05-20T02:17:52.618Z,7.62
2019-05-20T02:20:21.773Z,7.53
2019-05-20T02:22:50.969Z,7.10
2019-05-20T02:25:20.590Z,7.80
2019-05-20T02:27:49.888Z,7.55
2019-05-20T02:30:19.311Z,7.50
2019-05-20T02:32:48.459Z,7.10
2019-05-20T02:35:17.654Z,7.22
2019-05-20T02:37:46.977Z,7.58
2019-05-20T02:40:16.128Z,7.65
2019-05-20T02:42:45.747Z,7.22
2019-05-20T02:45:14.936Z,7.40
2019-05-20T02:47:44.071Z,8.00
2019-05-20T02:50:13.197Z,7.42
2019-05-20T02:52:42.692Z,7.25
2019-05-20T02:55:11.821Z,7.22
2019-05-20T02:57:41.334Z,7.35
2019-05-20T03:00:10.474Z,7.80
2019-05-20T03:02:39.803Z,9.18
2019-05-20T03:05:08.936Z,7.53
2019-05-20T03:07:38.063Z,7.78
2019-05-20T03:10:07.470Z,7.80
2019-05-20T03:12:36.602Z,7.65
2019-05-20T03:15:07.022Z,7.45
2019-05-20T03:17:36.162Z,7.37
2019-05-20T03:20:06.321Z,8.30
2019-05-20T03:22:35.466Z,7.50
2019-05-20T03:25:07.303Z,8.20
2019-05-20T03:27:36.555Z,7.42
2019-05-20T03:30:08.508Z,7.28
2019-05-20T03:32:37.665Z,7.67
2019-05-20T03:35:09.534Z,7.45
2019-05-20T03:37:38.667Z,7.85
2019-05-20T03:40:08.991Z,8.10
2019-05-20T03:42:38.112Z,8.03
2019-05-20T03:45:07.293Z,8.08
2019-05-20T03:47:36.406Z,8.30
2019-05-20T03:50:07.691Z,7.90
2019-05-20T03:52:36.820Z,8.00
2019-05-20T03:55:08.977Z,7.87
2019-05-20T03:57:38.164Z,8.10
2019-05-20T04:00:08.562Z,8.25
2019-05-20T04:02:38.031Z,8.45
2019-05-20T04:05:07.225Z,8.33
2019-05-20T04:07:36.357Z,7.97
2019-05-20T04:10:07.004Z,8.53
2019-05-20T04:12:36.153Z,8.43
2019-05-20T04:15:05.924Z,7.97
2019-05-20T04:17:35.043Z,8.05
2019-05-20T04:20:06.574Z,8.58
2019-05-20T04:22:35.699Z,8.70
2019-05-20T04:25:06.514Z,8.05
2019-05-20T04:27:35.622Z,8.33
2019-05-20T04:30:07.863Z,8.13
2019-05-20T04:32:37.340Z,8.43
2019-05-20T04:35:21.285Z,8.63
2019-05-20T04:37:37.887Z,8.28
2019-05-20T04:40:07.022Z,8.33
2019-05-20T04:42:36.150Z,7.90
2019-05-20T04:45:06.491Z,8.83
2019-05-20T04:47:35.850Z,8.63
2019-05-20T04:50:07.793Z,8.20
2019-05-20T04:52:36.940Z,7.87
2019-05-20T04:55:06.262Z,7.75
2019-05-20T04:57:35.421Z,7.90
2019-05-20T05:00:08.022Z,7.87
2019-05-20T05:02:37.188Z,8.78
2019-05-20T05:05:07.557Z,8.20
2019-05-20T05:07:36.754Z,8.83
2019-05-20T05:10:09.133Z,8.50
2019-05-20T05:12:38.568Z,9.00
2019-05-20T05:15:10.938Z,8.98
2019-05-20T05:17:40.090Z,8.60
2019-05-20T05:20:17.554Z,8.78
2019-05-20T05:22:40.381Z,8.45
2019-05-20T05:25:09.543Z,8.05
2019-05-20T05:27:38.685Z,8.65
2019-05-20T05:30:08.481Z,8.13
2019-05-20T05:32:44.774Z,7.60
2019-05-20T05:35:16.713Z,8.83
2019-05-20T05:37:45.897Z,8.68
2019-05-20T05:40:15.139Z,8.63
2019-05-20T05:42:44.259Z,8.15
2019-05-20T05:45:13.460Z,8.35
2019-05-20T05:47:42.599Z,7.97
2019-05-20T05:50:11.931Z,8.33
2019-05-20T05:52:41.886Z,8.68
2019-05-20T05:55:11.282Z,7.97
2019-05-20T05:57:40.510Z,8.18
2019-05-20T06:00:10.264Z,8.48
2019-05-20T06:02:39.437Z,8.10
2019-05-20T06:05:08.576Z,7.95
2019-05-20T06:07:37.701Z,8.28
2019-05-20T06:10:07.701Z,8.00
2019-05-20T06:12:36.837Z,8.20
2019-05-20T06:15:10.026Z,8.55
2019-05-20T06:17:39.656Z,8.38
2019-05-20T06:20:09.617Z,7.70
2019-05-20T06:22:38.746Z,8.15
2019-05-20T06:25:08.221Z,8.78
2019-05-20T06:27:37.343Z,8.18
2019-05-20T06:30:10.801Z,8.20
2019-05-20T06:32:39.937Z,8.20
2019-05-20T06:35:09.277Z,7.97
2019-05-20T06:37:40.548Z,8.08
2019-05-20T06:40:09.724Z,8.18
2019-05-20T06:42:39.027Z,8.35
2019-05-20T06:45:08.284Z,7.72
2019-05-20T06:47:37.864Z,8.53
2019-05-20T06:50:09.670Z,8.15
2019-05-20T06:52:38.802Z,8.08
2019-05-20T06:55:08.457Z,8.40
2019-05-20T06:57:37.587Z,8.40
2019-05-20T07:00:07.869Z,8.05
2019-05-20T07:02:36.994Z,7.55
2019-05-20T07:05:07.807Z,8.53
2019-05-20T07:07:37.144Z,7.17
2019-05-20T07:10:08.327Z,8.20
2019-05-20T07:12:41.894Z,8.25
2019-05-20T07:15:08.408Z,7.90
2019-05-20T07:17:37.712Z,8.30
2019-05-20T07:20:08.631Z,8.25
2019-05-20T07:22:54.601Z,7.75
2019-05-20T07:25:10.474Z,7.72
2019-05-20T07:27:39.665Z,7.50
2019-05-20T07:30:08.752Z,7.25
2019-05-20T07:32:37.905Z,7.72
2019-05-20T07:35:08.019Z,8.00
2019-05-20T07:37:37.193Z,8.03
2019-05-20T07:40:06.546Z,7.80
2019-05-20T07:42:36.486Z,7.60
2019-05-20T07:45:07.517Z,7.60
2019-05-20T07:47:36.648Z,8.80
2019-05-20T07:50:07.981Z,8.10
2019-05-20T07:52:37.136Z,7.85
2019-05-20T07:55:08.168Z,7.28
2019-05-20T07:57:38.644Z,7.42
2019-05-20T08:00:09.218Z,8.15
2019-05-20T08:02:38.367Z,7.60
2019-05-20T08:05:08.493Z,7.08
2019-05-20T08:07:51.210Z,7.65
2019-05-20T08:10:08.491Z,7.33
2019-05-20T08:12:37.657Z,8.55
2019-05-20T08:15:08.505Z,7.12
2019-05-20T08:17:37.640Z,7.75
2019-05-20T08:20:09.709Z,7.85
2019-05-20T08:22:38.835Z,7.40
2019-05-20T08:25:08.113Z,7.87
2019-05-20T08:27:37.196Z,7.62
2019-05-20T08:30:13.360Z,8.08
2019-05-20T08:32:40.620Z,7.70
2019-05-20T08:35:09.822Z,7.90
2019-05-20T08:37:45.399Z,7.97
2019-05-20T08:40:09.914Z,7.60
2019-05-20T08:42:39.056Z,7.53
2019-05-20T08:45:08.199Z,8.13
2019-05-20T08:47:37.331Z,7.95
2019-05-20T08:50:12.890Z,7.40
2019-05-20T08:52:38.321Z,7.85
2019-05-20T08:55:07.508Z,7.45
2019-05-20T08:57:36.680Z,7.72
2019-05-20T09:00:07.456Z,7.85
2019-05-20T09:02:36.649Z,7.22
2019-05-20T09:05:06.943Z,8.00
2019-05-20T09:07:36.071Z,7.58
2019-05-20T09:10:05.686Z,7.42
2019-05-20T09:12:34.830Z,7.30
2019-05-20T09:15:06.709Z,7.90
2019-05-20T09:17:38.773Z,7.90
2019-05-20T09:20:09.486Z,7.15
2019-05-20T09:22:39.304Z,7.67
2019-05-20T09:25:08.525Z,7.50
2019-05-20T09:27:37.832Z,7.95
2019-05-20T09:30:09.715Z,7.37
2019-05-20T09:32:42.753Z,7.22
2019-05-20T09:35:09.740Z,7.87
2019-05-20T09:37:38.882Z,7.40
2019-05-20T09:40:09.672Z,7.35
2019-05-20T09:42:41.027Z,7.80
2019-05-20T09:45:09.684Z,7.47
2019-05-20T09:47:38.847Z,7.62
2019-05-20T09:50:07.977Z,7.95
2019-05-20T09:52:37.098Z,7.65
2019-05-20T09:55:07.299Z,8.28
2019-05-20T09:57:36.451Z,7.70
2019-05-20T10:00:08.378Z,7.28
2019-05-20T10:02:38.493Z,7.75
2019-05-20T10:05:07.704Z,7.17
2019-05-20T10:07:36.840Z,7.10
2019-05-20T10:10:09.932Z,8.00
2019-05-20T10:12:46.235Z,7.75
2019-05-20T10:15:09.971Z,7.03
2019-05-20T10:17:39.109Z,8.20
2019-05-20T10:20:08.979Z,7.53
2019-05-20T10:22:38.154Z,7.10
2019-05-20T10:25:07.653Z,7.37
2019-05-20T10:27:36.754Z,7.75
2019-05-20T10:30:09.369Z,7.70
2019-05-20T10:32:38.485Z,7.67
2019-05-20T10:35:08.766Z,7.33
2019-05-20T10:37:37.912Z,7.92
2019-05-20T10:40:08.393Z,8.15
2019-05-20T10:42:37.550Z,8.03
2019-05-20T10:45:06.670Z,7.47
2019-05-20T10:47:35.903Z,8.38
2019-05-20T10:50:07.330Z,7.72
2019-05-20T10:52:36.490Z,7.53
2019-05-20T10:55:08.188Z,8.45
2019-05-20T10:57:37.519Z,8.45
2019-05-20T11:00:08.086Z,7.60
2019-05-20T11:02:37.280Z,8.00
2019-05-20T11:05:08.034Z,8.33
2019-05-20T11:07:37.159Z,8.23
2019-05-20T11:10:07.276Z,8.50
2019-05-20T11:12:36.418Z,8.60
2019-05-20T11:15:08.277Z,8.88
2019-05-20T11:17:37.446Z,8.68
2019-05-20T11:20:07.800Z,8.50
2019-05-20T11:22:36.925Z,8.13
2019-05-20T11:25:08.702Z,9.13
2019-05-20T11:27:37.845Z,8.58
2019-05-20T11:30:09.977Z,8.90
2019-05-20T11:32:39.148Z,8.18
2019-05-20T11:35:08.558Z,8.78
2019-05-20T11:37:37.899Z,9.18
2019-05-20T11:40:09.305Z,9.83
2019-05-20T11:42:38.881Z,9.15
2019-05-20T11:45:11.135Z,9.40
2019-05-20T11:47:40.288Z,9.08
2019-05-20T11:50:09.738Z,9.75
2019-05-20T11:52:38.885Z,9.60
2019-05-20T11:55:09.366Z,9.65
2019-05-20T11:57:38.489Z,10.08
2019-05-20T12:00:09.026Z,9.93
2019-05-20T12:02:38.183Z,9.28
2019-05-20T12:05:07.790Z,10.28
2019-05-20T12:07:36.927Z,9.05
2019-05-20T12:10:08.590Z,9.93
2019-05-20T12:12:38.142Z,10.08
2019-05-20T12:15:08.572Z,9.75
2019-05-20T12:17:37.918Z,9.35
2019-05-20T12:20:10.876Z,9.53
2019-05-20T12:22:39.689Z,10.32
2019-05-20T12:25:09.598Z,10.00
2019-05-20T12:27:38.776Z,9.75
2019-05-20T12:30:08.604Z,9.33
2019-05-20T12:32:37.853Z,9.73
2019-05-20T12:35:08.420Z,9.45
2019-05-20T12:37:37.904Z,10.35
2019-05-20T12:40:08.643Z,9.88
2019-05-20T12:42:38.383Z,10.25
2019-05-20T12:45:09.224Z,10.40
2019-05-20T12:47:38.377Z,10.95
2019-05-20T12:50:08.990Z,10.72
2019-05-20T12:52:38.193Z,10.48
2019-05-20T12:55:09.844Z,11.10
2019-05-20T12:57:38.996Z,10.78
2019-05-20T13:00:11.714Z,10.98
2019-05-20T13:02:42.335Z,11.33
2019-05-20T13:05:12.405Z,11.15
2019-05-20T13:07:41.541Z,12.23
2019-05-20T13:10:28.188Z,12.82
2019-05-20T13:12:41.711Z,15.60
2019-05-20T13:15:11.578Z,18.45
2019-05-20T13:17:44.631Z,19.15
2019-05-20T13:20:12.086Z,19.95
2019-05-20T13:22:41.365Z,19.50
2019-05-20T13:25:10.571Z,18.37
2019-05-20T13:27:39.763Z,19.05
2019-05-20T13:30:09.172Z,18.10
2019-05-20T13:32:38.355Z,18.32
2019-05-20T13:35:08.735Z,17.65
2019-05-20T13:37:38.297Z,17.90
2019-05-20T13:40:07.926Z,17.40
2019-05-20T13:42:37.280Z,18.02
2019-05-20T13:45:10.004Z,16.97
2019-05-20T13:47:39.324Z,16.65
2019-05-20T13:50:09.200Z,17.42
2019-05-20T13:52:38.394Z,17.23
2019-05-20T13:55:07.540Z,16.32
2019-05-20T13:57:36.658Z,15.65
2019-05-20T14:00:06.922Z,15.72
2019-05-20T14:02:36.052Z,16.23
2019-05-20T14:05:05.332Z,15.45
2019-05-20T14:07:34.568Z,15.45
2019-05-20T14:10:07.240Z,14.55
2019-05-20T14:12:36.464Z,14.95
2019-05-20T14:15:06.816Z,15.28
2019-05-20T14:17:35.959Z,14.47
2019-05-20T14:20:07.181Z,14.00
2019-05-20T14:22:36.276Z,14.55
2019-05-20T14:25:07.281Z,14.15
2019-05-20T14:27:36.409Z,13.30
2019-05-20T14:30:09.371Z,13.25
2019-05-20T14:32:38.527Z,13.68
2019-05-20T14:35:07.664Z,13.62
2019-05-20T14:37:36.843Z,13.40
2019-05-20T14:40:06.517Z,12.90
2019-05-20T14:42:35.656Z,13.00
2019-05-20T14:45:05.675Z,12.20
2019-05-20T14:47:34.805Z,12.50
2019-05-20T14:50:07.153Z,11.63
2019-05-20T14:52:36.299Z,10.80
2019-05-20T14:55:06.606Z,11.75
2019-05-20T14:57:35.761Z,11.57
2019-05-20T15:00:08.282Z,10.65
2019-05-20T15:02:37.436Z,10.75
2019-05-20T15:05:09.569Z,11.08
2019-05-20T15:07:38.769Z,9.78
2019-05-20T15:10:11.395Z,10.03
2019-05-20T15:12:40.555Z,10.32
2019-05-20T15:15:09.722Z,9.80
2019-05-20T15:17:38.862Z,9.48
2019-05-20T15:20:08.219Z,9.50
2019-05-20T15:22:37.751Z,9.68
2019-05-20T15:25:07.651Z,8.63
2019-05-20T15:27:36.759Z,8.73
2019-05-20T15:30:09.168Z,9.63
2019-05-20T15:32:38.315Z,9.40
2019-05-20T15:35:07.452Z,9.23
2019-05-20T15:37:36.579Z,9.25
2019-05-20T15:40:06.524Z,8.65
2019-05-20T15:42:35.682Z,8.90
2019-05-20T15:45:07.620Z,8.53
2019-05-20T15:47:36.732Z,8.85
2019-05-20T15:50:10.376Z,8.18
2019-05-20T15:52:40.134Z,8.00
2019-05-20T15:55:09.262Z,8.50
2019-05-20T15:57:38.395Z,8.45
2019-05-20T16:00:08.278Z,8.35
2019-05-20T16:02:37.653Z,9.03
2019-05-20T16:05:09.861Z,7.45
2019-05-20T16:07:39.021Z,7.95
2019-05-20T16:10:08.574Z,7.80
2019-05-20T16:12:37.804Z,7.72
2019-05-20T16:15:07.719Z,7.95
2019-05-20T16:17:36.864Z,7.58
2019-05-20T16:20:09.036Z,7.55
2019-05-20T16:22:38.208Z,7.45
2019-05-20T16:25:11.844Z,7.60
2019-05-20T16:27:41.035Z,8.40
2019-05-20T16:30:11.417Z,8.23
2019-05-20T16:32:40.620Z,8.13
2019-05-20T16:35:09.705Z,7.35
2019-05-20T16:37:38.907Z,7.92
2019-05-20T16:40:09.390Z,8.10
2019-05-20T16:42:39.153Z,8.28
2019-05-20T16:45:11.915Z,7.25
2019-05-20T16:47:40.260Z,8.38
2019-05-20T16:50:10.127Z,8.40
2019-05-20T16:52:40.191Z,8.35
2019-05-20T16:55:09.333Z,8.10
2019-05-20T16:57:38.515Z,8.38
2019-05-20T17:00:29.226Z,8.50
2019-05-20T17:02:39.254Z,7.90
2019-05-20T17:05:08.595Z,8.50
2019-05-20T17:07:38.277Z,8.10
2019-05-20T17:10:09.331Z,8.33
2019-05-20T17:12:38.586Z,8.85
2019-05-20T17:15:08.115Z,8.25
2019-05-20T17:17:37.244Z,7.90
2019-05-20T17:20:07.428Z,8.18
2019-05-20T17:22:36.561Z,8.08
2019-05-20T17:25:07.543Z,9.43
2019-05-20T17:27:37.198Z,9.33
2019-05-20T17:30:07.487Z,10.38
2019-05-20T17:32:36.731Z,10.20
2019-05-20T17:35:05.955Z,10.18
2019-05-20T17:37:35.539Z,10.30
2019-05-20T17:40:07.473Z,8.80
2019-05-20T17:42:36.617Z,11.57
2019-05-20T17:45:06.953Z,12.15
2019-05-20T17:47:36.090Z,11.05
2019-05-20T17:50:06.770Z,11.53
2019-05-20T17:52:35.954Z,10.18
2019-05-20T17:55:06.504Z,10.25
2019-05-20T17:57:36.325Z,10.85
2019-05-20T18:00:09.546Z,9.13
2019-05-20T18:02:39.085Z,9.88
2019-05-20T18:05:08.224Z,10.63
2019-05-20T18:07:40.456Z,13.25
2019-05-20T18:10:10.916Z,14.18
2019-05-20T18:12:40.069Z,12.40
2019-05-20T18:15:09.296Z,12.53
2019-05-20T18:17:38.563Z,14.45
2019-05-20T18:20:07.669Z,14.25
2019-05-20T18:22:36.885Z,15.43
2019-05-20T18:25:07.326Z,16.32
2019-05-20T18:27:36.510Z,18.52
2019-05-20T18:30:09.176Z,18.45
2019-05-20T18:32:38.851Z,20.88
2019-05-20T18:35:08.242Z,18.82
2019-05-20T18:37:37.505Z,18.15
2019-05-20T18:40:14.443Z,17.37
2019-05-20T18:42:40.470Z,17.75
2019-05-20T18:45:09.737Z,16.23
2019-05-20T18:47:38.960Z,15.95
2019-05-20T18:50:08.832Z,17.98
2019-05-20T18:52:38.700Z,16.42
2019-05-20T18:55:08.453Z,18.75
2019-05-20T18:57:37.624Z,19.65
2019-05-20T19:00:08.818Z,17.25
2019-05-20T19:02:38.110Z,15.85
2019-05-20T19:05:08.683Z,16.60
2019-05-20T19:07:37.925Z,15.32
2019-05-20T19:10:07.108Z,15.83
2019-05-20T19:12:36.461Z,15.65
2019-05-20T19:15:07.096Z,17.12
2019-05-20T19:17:36.470Z,14.33
2019-05-20T19:20:06.640Z,15.35
2019-05-20T19:22:35.849Z,14.53
2019-05-20T19:25:06.855Z,16.45
2019-05-20T19:27:36.347Z,14.25
2019-05-20T19:30:06.407Z,14.70
2019-05-20T19:32:35.612Z,16.02
2019-05-20T19:35:07.382Z,45.05
2019-05-20T19:37:36.586Z,54.20
2019-05-20T19:40:07.353Z,27.60
2019-05-20T19:42:37.199Z,26.27
2019-05-20T19:45:06.907Z,24.43
2019-05-20T19:47:36.322Z,23.40
2019-05-20T19:50:07.643Z,23.00
2019-05-20T19:52:37.239Z,23.10
2019-05-20T19:55:07.295Z,20.25
2019-05-20T19:57:37.662Z,19.05
2019-05-20T20:00:10.170Z,17.95
2019-05-20T20:02:39.306Z,17.90
2019-05-20T20:05:08.790Z,17.85
2019-05-20T20:07:37.967Z,16.95
2019-05-20T20:10:07.212Z,16.70
2019-05-20T20:12:36.385Z,16.75
2019-05-20T20:15:07.068Z,16.85
2019-05-20T20:17:36.234Z,14.43
2019-05-20T20:20:06.092Z,14.47
2019-05-20T20:22:35.241Z,14.55
2019-05-20T20:25:06.143Z,15.98
2019-05-20T20:27:35.347Z,14.43
2019-05-20T20:30:06.052Z,14.38
2019-05-20T20:32:38.319Z,16.67
2019-05-20T20:35:07.410Z,13.98
2019-05-20T20:37:36.544Z,16.50
2019-05-20T20:40:05.840Z,15.68
2019-05-20T20:42:34.993Z,15.40
2019-05-20T20:45:05.279Z,14.03
2019-05-20T20:47:41.648Z,15.68
2019-05-20T20:50:06.146Z,16.45
2019-05-20T20:52:35.264Z,14.87
2019-05-20T20:55:06.729Z,16.50
2019-05-20T20:57:36.311Z,14.45
2019-05-20T21:00:08.826Z,25.05
2019-05-20T21:02:52.161Z,17.48
2019-05-20T21:05:09.041Z,29.70
2019-05-20T21:07:38.197Z,45.80
2019-05-20T21:10:07.740Z,33.75
2019-05-20T21:12:36.932Z,29.42
2019-05-20T21:15:06.076Z,25.65
2019-05-20T21:17:35.697Z,23.55
2019-05-20T21:20:07.497Z,21.37
2019-05-20T21:22:36.694Z,19.10
2019-05-20T21:25:06.921Z,19.73
2019-05-20T21:27:36.065Z,19.80
2019-05-20T21:30:07.941Z,15.08
2019-05-20T21:32:37.176Z,15.48
2019-05-20T21:35:07.005Z,16.93
2019-05-20T21:37:36.144Z,17.80
2019-05-20T21:40:05.760Z,17.45
2019-05-20T21:42:34.910Z,16.32
2019-05-20T21:45:06.261Z,17.92
2019-05-20T21:47:35.409Z,18.07
2019-05-20T21:50:05.853Z,17.90
2019-05-20T21:52:35.004Z,19.30
2019-05-20T21:55:05.712Z,16.67
2019-05-20T21:57:34.935Z,17.92
2019-05-20T22:00:11.129Z,18.55
2019-05-20T22:02:40.282Z,18.65
2019-05-20T22:05:09.458Z,20.75
2019-05-20T22:07:38.713Z,18.62
2019-05-20T22:10:08.173Z,18.67
2019-05-20T22:12:37.357Z,18.35
2019-05-20T22:15:07.485Z,18.42
2019-05-20T22:17:36.662Z,19.45
2019-05-20T22:20:06.884Z,19.70
2019-05-20T22:22:53.660Z,17.75
2019-05-20T22:25:22.809Z,18.52
2019-05-20T22:27:51.960Z,18.42
2019-05-20T22:30:21.140Z,20.55
2019-05-20T22:32:50.299Z,20.70
2019-05-20T22:35:19.511Z,19.75
2019-05-20T22:37:48.695Z,18.87
2019-05-20T22:40:17.970Z,19.77
2019-05-20T22:42:47.548Z,19.98
2019-05-20T22:45:16.687Z,19.87
2019-05-20T22:47:45.866Z,17.45
2019-05-20T22:50:15.103Z,15.80
2019-05-20T22:52:44.249Z,15.83
2019-05-20T22:55:13.451Z,15.10
2019-05-20T22:57:42.704Z,14.47
2019-05-20T23:00:12.150Z,13.20
2019-05-20T23:02:41.355Z,13.35
2019-05-20T23:05:10.599Z,14.25
2019-05-20T23:07:39.730Z,13.28
2019-05-20T23:10:08.935Z,13.43
2019-05-20T23:12:38.079Z,12.10
2019-05-20T23:15:07.762Z,11.20
2019-05-20T23:17:36.907Z,12.55
2019-05-20T23:20:06.939Z,11.88
2019-05-20T23:22:36.119Z,11.60
2019-05-20T23:25:05.839Z,10.38
2019-05-20T23:27:34.978Z,11.12
2019-05-20T23:30:06.623Z,11.60
2019-05-20T23:32:35.815Z,10.70
2019-05-20T23:35:07.039Z,10.55
2019-05-20T23:37:36.190Z,10.58
2019-05-20T23:40:06.652Z,10.18
2019-05-20T23:42:35.787Z,9.30
2019-05-20T23:45:10.423Z,10.10
2019-05-20T23:47:39.939Z,9.65
2019-05-20T23:50:09.191Z,10.05
2019-05-20T23:52:38.422Z,9.28
2019-05-20T23:55:09.211Z,10.48
2019-05-20T23:57:38.797Z,9.58
